createdAt,value
2022-08-14T00:00:03.344Z,27.90
2022-08-14T00:02:32.633Z,28.00
2022-08-14T00:05:01.965Z,28.10
2022-08-14T00:07:30.140Z,28.00
2022-08-14T00:10:49.328Z,27.90
2022-08-14T00:12:56.608Z,27.90
2022-08-14T00:15:29.939Z,27.90
2022-08-14T00:18:06.855Z,27.90
2022-08-14T00:20:42.916Z,27.90
2022-08-14T00:23:16.734Z,27.80
2022-08-14T00:25:53.808Z,27.80
2022-08-14T00:28:35.601Z,27.80
2022-08-14T00:31:05.005Z,27.70
2022-08-14T00:33:51.026Z,27.70
2022-08-14T00:36:36.737Z,27.70
2022-08-14T00:39:09.663Z,27.60
2022-08-14T00:41:40.463Z,27.70
2022-08-14T00:44:10.427Z,27.60
2022-08-14T00:46:38.781Z,27.60
2022-08-14T00:49:11.500Z,27.50
2022-08-14T00:51:45.549Z,27.50
2022-08-14T00:54:21.202Z,27.50
2022-08-14T00:56:55.382Z,27.50
2022-08-14T00:59:25.223Z,27.40
2022-08-14T01:01:57.442Z,27.40
2022-08-14T01:04:37.850Z,27.30
2022-08-14T01:07:20.756Z,27.30
2022-08-14T01:09:50.696Z,27.30
2022-08-14T01:12:27.193Z,27.30
2022-08-14T01:14:58.262Z,27.20
2022-08-14T01:17:45.942Z,27.20
2022-08-14T01:20:39.917Z,27.20
2022-08-14T01:23:16.248Z,27.20
2022-08-14T01:25:48.661Z,27.20
2022-08-14T01:28:47.400Z,27.30
2022-08-14T01:31:10.230Z,27.20
2022-08-14T01:34:00.189Z,27.30
2022-08-14T01:36:36.623Z,27.20
2022-08-14T01:39:09.735Z,27.20
2022-08-14T01:41:42.112Z,27.20
2022-08-14T01:44:31.206Z,27.20
2022-08-14T01:47:16.565Z,27.10
2022-08-14T01:49:59.994Z,27.10
2022-08-14T01:52:58.664Z,27.00
2022-08-14T01:55:24.169Z,27.00
2022-08-14T01:58:01.618Z,27.20
2022-08-14T02:00:40.439Z,27.00
2022-08-14T02:03:10.678Z,26.90
2022-08-14T02:05:39.074Z,26.90
2022-08-14T02:08:09.625Z,26.80
2022-08-14T02:10:46.371Z,26.80
2022-08-14T02:13:16.162Z,26.60
2022-08-14T02:15:45.673Z,26.70
2022-08-14T02:18:15.094Z,26.80
2022-08-14T02:20:43.459Z,26.70
2022-08-14T02:23:11.945Z,26.70
2022-08-14T02:25:41.196Z,26.60
2022-08-14T02:28:22.025Z,26.60
2022-08-14T02:30:57.159Z,26.70
2022-08-14T02:33:25.665Z,26.60
2022-08-14T02:36:05.003Z,26.60
2022-08-14T02:38:46.647Z,26.50
2022-08-14T02:41:15.904Z,26.50
2022-08-14T02:43:48.398Z,26.50
2022-08-14T02:46:20.641Z,26.50
2022-08-14T02:49:02.727Z,26.50
2022-08-14T02:51:33.408Z,26.50
2022-08-14T02:54:01.716Z,26.50
2022-08-14T02:57:15.150Z,26.50
2022-08-14T02:59:21.136Z,26.50
2022-08-14T03:01:50.660Z,26.50
2022-08-14T03:04:23.005Z,26.50
2022-08-14T03:07:06.426Z,26.50
2022-08-14T03:10:24.459Z,26.40
2022-08-14T03:12:31.382Z,26.40
2022-08-14T03:15:03.091Z,26.80
2022-08-14T03:17:41.236Z,26.40
2022-08-14T03:20:22.573Z,26.30
2022-08-14T03:22:51.384Z,26.40
2022-08-14T03:25:21.749Z,26.30
2022-08-14T03:27:58.633Z,26.40
2022-08-14T03:30:39.580Z,26.40
2022-08-14T03:33:11.414Z,26.40
2022-08-14T03:36:05.463Z,26.30
2022-08-14T03:39:15.183Z,26.30
2022-08-14T03:41:23.157Z,26.30
2022-08-14T03:44:01.148Z,26.40
2022-08-14T03:46:52.876Z,26.30
2022-08-14T03:49:28.770Z,26.30
2022-08-14T03:52:01.340Z,26.20
2022-08-14T03:54:30.052Z,26.20
2022-08-14T03:57:03.359Z,26.50
2022-08-14T03:59:34.046Z,26.20
2022-08-14T04:02:04.729Z,26.20
2022-08-14T04:04:53.429Z,26.10
2022-08-14T04:07:22.449Z,26.20
2022-08-14T04:09:50.493Z,26.10
2022-08-14T04:12:26.478Z,26.10
2022-08-14T04:14:56.571Z,26.10
2022-08-14T04:17:25.720Z,26.10
2022-08-14T04:19:54.343Z,26.00
2022-08-14T04:22:22.527Z,26.00
2022-08-14T04:24:50.561Z,25.90
2022-08-14T04:27:19.512Z,25.80
2022-08-14T04:29:47.432Z,25.80
2022-08-14T04:32:58.270Z,25.70
2022-08-14T04:35:07.208Z,25.70
2022-08-14T04:37:53.961Z,25.70
2022-08-14T04:40:40.431Z,25.70
2022-08-14T04:43:26.310Z,25.70
2022-08-14T04:46:09.313Z,25.70
2022-08-14T04:48:43.665Z,25.70
2022-08-14T04:51:21.623Z,25.60
2022-08-14T04:53:51.526Z,25.50
2022-08-14T04:56:30.695Z,25.60
2022-08-14T04:59:09.624Z,25.60
2022-08-14T05:01:39.797Z,25.60
2022-08-14T05:04:16.138Z,25.60
2022-08-14T05:06:44.473Z,25.70
2022-08-14T05:09:14.434Z,25.70
2022-08-14T05:11:44.111Z,25.60
2022-08-14T05:14:42.673Z,25.60
2022-08-14T05:17:02.398Z,25.60
2022-08-14T05:19:32.804Z,25.70
2022-08-14T05:22:17.122Z,25.70
2022-08-14T05:24:50.579Z,25.70
2022-08-14T05:27:22.604Z,25.70
2022-08-14T05:29:53.798Z,25.70
2022-08-14T05:32:27.819Z,25.70
2022-08-14T05:34:59.266Z,25.70
2022-08-14T05:37:29.662Z,25.80
2022-08-14T05:39:59.225Z,25.70
2022-08-14T05:42:34.049Z,26.10
2022-08-14T05:45:04.100Z,25.70
2022-08-14T05:47:37.681Z,25.70
2022-08-14T05:50:18.861Z,25.80
2022-08-14T05:52:50.171Z,25.80
2022-08-14T05:55:21.975Z,25.70
2022-08-14T05:57:54.650Z,25.80
2022-08-14T06:00:34.791Z,25.80
2022-08-14T06:03:08.716Z,25.90
2022-08-14T06:05:39.126Z,25.90
2022-08-14T06:08:31.267Z,26.00
2022-08-14T06:11:06.667Z,26.30
2022-08-14T06:13:44.690Z,25.90
2022-08-14T06:16:17.749Z,26.00
2022-08-14T06:18:48.640Z,26.00
2022-08-14T06:21:27.892Z,26.00
2022-08-14T06:23:57.628Z,26.10
2022-08-14T06:26:30.252Z,26.10
2022-08-14T06:28:59.962Z,26.10
2022-08-14T06:31:28.140Z,26.10
2022-08-14T06:35:10.481Z,26.20
2022-08-14T06:36:45.773Z,26.20
2022-08-14T06:39:14.496Z,26.20
2022-08-14T06:41:58.373Z,26.20
2022-08-14T06:44:30.649Z,26.10
2022-08-14T06:47:02.182Z,26.20
2022-08-14T06:49:31.069Z,26.20
2022-08-14T06:52:15.308Z,26.20
2022-08-14T06:54:44.572Z,26.30
2022-08-14T06:57:13.860Z,26.40
2022-08-14T06:59:42.711Z,26.40
2022-08-14T07:02:29.350Z,26.50
2022-08-14T07:05:21.045Z,26.50
2022-08-14T07:07:57.801Z,26.50
2022-08-14T07:10:26.961Z,26.60
2022-08-14T07:13:03.820Z,26.60
2022-08-14T07:15:39.883Z,26.60
2022-08-14T07:18:12.884Z,26.60
2022-08-14T07:20:44.827Z,26.60
2022-08-14T07:23:20.436Z,26.60
2022-08-14T07:25:51.716Z,27.00
2022-08-14T07:28:23.320Z,26.90
2022-08-14T07:30:52.324Z,26.90
2022-08-14T07:33:28.983Z,26.90
2022-08-14T07:36:00.267Z,27.00
2022-08-14T07:38:34.001Z,27.00
2022-08-14T07:41:11.993Z,27.10
2022-08-14T07:43:47.471Z,27.20
2022-08-14T07:46:29.260Z,27.20
2022-08-14T07:48:59.167Z,27.20
2022-08-14T07:51:34.481Z,27.30
2022-08-14T07:54:11.405Z,27.30
2022-08-14T07:56:46.725Z,27.30
2022-08-14T07:59:20.781Z,27.40
2022-08-14T08:02:17.268Z,27.40
2022-08-14T08:04:50.721Z,27.50
2022-08-14T08:07:23.588Z,27.50
2022-08-14T08:09:57.081Z,27.60
2022-08-14T08:12:38.710Z,27.50
2022-08-14T08:15:08.091Z,27.60
2022-08-14T08:17:53.389Z,27.70
2022-08-14T08:20:27.397Z,27.80
2022-08-14T08:23:00.551Z,27.90
2022-08-14T08:25:39.810Z,27.90
2022-08-14T08:28:19.708Z,28.00
2022-08-14T08:30:56.186Z,28.00
2022-08-14T08:33:32.283Z,28.10
2022-08-14T08:36:12.778Z,28.20
2022-08-14T08:39:15.386Z,28.30
2022-08-14T08:41:43.392Z,28.40
2022-08-14T08:44:31.155Z,28.50
2022-08-14T08:47:05.238Z,28.50
2022-08-14T08:49:48.077Z,28.60
2022-08-14T08:52:25.385Z,28.60
2022-08-14T08:55:00.783Z,28.50
2022-08-14T08:57:35.956Z,28.50
2022-08-14T09:00:25.887Z,28.60
2022-08-14T09:02:59.275Z,28.70
2022-08-14T09:05:29.221Z,28.90
2022-08-14T09:08:30.299Z,29.00
2022-08-14T09:11:00.548Z,29.10
2022-08-14T09:13:31.385Z,29.20
2022-08-14T09:16:19.034Z,29.20
2022-08-14T09:18:48.003Z,29.20
2022-08-14T09:21:16.480Z,29.30
2022-08-14T09:24:25.984Z,29.40
2022-08-14T09:26:32.535Z,29.50
2022-08-14T09:29:02.905Z,29.60
2022-08-14T09:31:43.154Z,29.80
2022-08-14T09:34:34.498Z,29.80
2022-08-14T09:37:21.863Z,29.90
2022-08-14T09:40:00.754Z,30.00
2022-08-14T09:42:49.969Z,30.10
2022-08-14T09:45:23.945Z,30.20
2022-08-14T09:47:54.745Z,30.40
2022-08-14T09:50:26.923Z,30.40
2022-08-14T09:52:59.591Z,30.60
2022-08-14T09:55:41.567Z,30.60
2022-08-14T09:58:14.771Z,30.70
2022-08-14T10:00:50.831Z,30.80
2022-08-14T10:03:33.411Z,31.00
2022-08-14T10:06:09.804Z,31.00
2022-08-14T10:08:50.822Z,31.20
2022-08-14T10:11:24.550Z,31.30
2022-08-14T10:13:58.152Z,31.40
2022-08-14T10:16:33.284Z,31.50
2022-08-14T10:19:10.011Z,31.60
2022-08-14T10:23:11.132Z,31.70
2022-08-14T10:24:31.241Z,31.80
2022-08-14T10:27:06.435Z,31.90
2022-08-14T10:29:36.130Z,32.00
2022-08-14T10:32:17.604Z,32.00
2022-08-14T10:35:13.642Z,32.20
2022-08-14T10:37:46.386Z,32.20
2022-08-14T10:40:37.862Z,32.30
2022-08-14T10:43:16.679Z,32.50
2022-08-14T10:46:03.987Z,32.40
2022-08-14T10:48:57.421Z,32.50
2022-08-14T10:51:30.315Z,32.80
2022-08-14T10:54:25.971Z,32.70
2022-08-14T10:56:57.805Z,32.80
2022-08-14T10:59:43.367Z,33.00
2022-08-14T11:02:35.939Z,33.10
2022-08-14T11:05:14.896Z,33.20
2022-08-14T11:08:00.730Z,33.40
2022-08-14T11:10:42.977Z,33.50
2022-08-14T11:13:21.324Z,33.70
2022-08-14T11:16:00.705Z,33.70
2022-08-14T11:18:35.631Z,33.70
2022-08-14T11:21:08.458Z,33.90
2022-08-14T11:23:41.204Z,34.10
2022-08-14T11:26:13.607Z,34.10
2022-08-14T11:28:47.381Z,34.30
2022-08-14T11:31:20.615Z,34.50
2022-08-14T11:33:54.135Z,34.60
2022-08-14T11:36:56.934Z,34.50
2022-08-14T11:39:22.915Z,34.70
2022-08-14T11:42:57.348Z,35.00
2022-08-14T11:44:53.503Z,34.90
2022-08-14T11:47:24.796Z,34.90
2022-08-14T11:49:54.866Z,35.00
2022-08-14T11:52:44.914Z,35.00
2022-08-14T11:55:22.369Z,35.10
2022-08-14T11:58:01.457Z,35.30
2022-08-14T12:00:31.513Z,35.50
2022-08-14T12:03:04.803Z,35.60
2022-08-14T12:05:35.926Z,35.40
2022-08-14T12:08:11.925Z,35.60
2022-08-14T12:10:44.931Z,35.60
2022-08-14T12:13:17.441Z,35.70
2022-08-14T12:15:51.396Z,35.90
2022-08-14T12:18:32.325Z,35.90
2022-08-14T12:21:11.108Z,35.70
2022-08-14T12:24:02.476Z,35.90
2022-08-14T12:26:39.592Z,35.90
2022-08-14T12:29:11.090Z,35.80
2022-08-14T12:31:46.839Z,36.00
2022-08-14T12:34:20.052Z,35.90
2022-08-14T12:36:48.435Z,36.20
2022-08-14T12:39:23.827Z,36.20
2022-08-14T12:41:57.056Z,36.40
2022-08-14T12:44:32.144Z,36.50
2022-08-14T12:47:06.622Z,36.20
2022-08-14T12:49:35.294Z,36.20
2022-08-14T12:52:17.241Z,36.10
2022-08-14T12:54:57.485Z,36.20
2022-08-14T12:57:39.298Z,36.50
2022-08-14T13:00:22.998Z,36.70
2022-08-14T13:02:55.097Z,36.70
2022-08-14T13:05:27.227Z,36.90
2022-08-14T13:07:57.177Z,37.10
2022-08-14T13:10:51.442Z,36.90
2022-08-14T13:13:21.476Z,36.90
2022-08-14T13:15:56.018Z,37.00
2022-08-14T13:18:27.815Z,37.00
2022-08-14T13:21:01.749Z,37.10
2022-08-14T13:23:36.119Z,37.30
2022-08-14T13:26:07.164Z,37.20
2022-08-14T13:29:02.045Z,37.30
2022-08-14T13:31:34.562Z,37.40
2022-08-14T13:34:14.280Z,37.30
2022-08-14T13:36:54.194Z,37.20
2022-08-14T13:39:29.631Z,37.30
2022-08-14T13:42:08.264Z,37.20
2022-08-14T13:44:37.497Z,37.30
2022-08-14T13:47:10.779Z,37.20
2022-08-14T13:49:40.419Z,37.20
2022-08-14T13:52:51.589Z,37.00
2022-08-14T13:55:19.786Z,37.00
2022-08-14T13:58:03.233Z,37.00
2022-08-14T14:00:35.394Z,36.90
2022-08-14T14:03:06.838Z,36.80
2022-08-14T14:05:52.537Z,36.80
2022-08-14T14:08:43.146Z,36.80
2022-08-14T14:11:11.267Z,36.70
2022-08-14T14:13:42.092Z,36.60
2022-08-14T14:16:15.486Z,36.70
2022-08-14T14:18:55.930Z,36.60
2022-08-14T14:21:26.619Z,36.50
2022-08-14T14:23:58.067Z,36.40
2022-08-14T14:26:28.729Z,36.40
2022-08-14T14:28:58.467Z,36.40
2022-08-14T14:31:29.692Z,36.30
2022-08-14T14:34:00.897Z,36.20
2022-08-14T14:36:36.663Z,36.10
2022-08-14T14:39:07.960Z,36.10
2022-08-14T14:41:43.540Z,36.00
2022-08-14T14:44:16.109Z,35.80
2022-08-14T14:46:50.644Z,35.90
2022-08-14T14:49:21.733Z,36.00
2022-08-14T14:51:51.571Z,35.90
2022-08-14T14:54:30.892Z,35.80
2022-08-14T14:57:02.221Z,35.80
2022-08-14T14:59:35.915Z,35.90
2022-08-14T15:02:08.131Z,35.80
2022-08-14T15:04:38.911Z,35.80
2022-08-14T15:07:12.385Z,35.70
2022-08-14T15:09:41.203Z,35.70
2022-08-14T15:12:27.912Z,35.70
2022-08-14T15:15:08.478Z,35.60
2022-08-14T15:17:41.056Z,35.60
2022-08-14T15:20:17.356Z,35.50
2022-08-14T15:23:00.742Z,35.50
2022-08-14T15:25:31.814Z,35.50
2022-08-14T15:28:00.779Z,35.50
2022-08-14T15:30:44.225Z,35.50
2022-08-14T15:33:14.281Z,35.30
2022-08-14T15:35:44.880Z,35.30
2022-08-14T15:38:17.687Z,35.30
2022-08-14T15:40:51.489Z,35.20
2022-08-14T15:43:27.390Z,35.20
2022-08-14T15:46:01.025Z,35.10
2022-08-14T15:48:29.480Z,35.00
2022-08-14T15:50:58.394Z,35.10
2022-08-14T15:53:26.431Z,35.00
2022-08-14T15:55:59.784Z,35.00
2022-08-14T15:58:29.109Z,35.00
2022-08-14T16:01:26.575Z,34.90
2022-08-14T16:04:05.332Z,34.90
2022-08-14T16:06:35.802Z,34.90
2022-08-14T16:09:11.159Z,35.00
2022-08-14T16:11:43.293Z,35.00
2022-08-14T16:14:21.221Z,35.00
2022-08-14T16:16:59.860Z,34.90
2022-08-14T16:19:32.592Z,34.90
2022-08-14T16:22:57.342Z,34.90
2022-08-14T16:25:03.862Z,34.90
2022-08-14T16:27:37.207Z,34.70
2022-08-14T16:30:10.970Z,34.60
2022-08-14T16:32:55.783Z,34.70
2022-08-14T16:35:42.244Z,34.60
2022-08-14T16:38:35.736Z,34.60
2022-08-14T16:41:23.005Z,34.60
2022-08-14T16:43:59.393Z,34.60
2022-08-14T16:46:28.636Z,34.60
2022-08-14T16:48:59.164Z,34.60
2022-08-14T16:51:29.473Z,34.50
2022-08-14T16:54:00.097Z,34.50
2022-08-14T16:56:36.249Z,34.50
2022-08-14T16:59:09.240Z,34.50
2022-08-14T17:01:42.796Z,34.40
2022-08-14T17:04:24.351Z,34.50
2022-08-14T17:06:55.187Z,34.40
2022-08-14T17:09:35.375Z,34.30
2022-08-14T17:12:07.923Z,34.40
2022-08-14T17:14:54.198Z,34.30
2022-08-14T17:17:25.933Z,34.40
2022-08-14T17:20:02.074Z,34.30
2022-08-14T17:22:49.907Z,34.30
2022-08-14T17:25:22.632Z,34.30
2022-08-14T17:28:49.688Z,34.20
2022-08-14T17:31:02.624Z,34.20
2022-08-14T17:33:40.930Z,34.20
2022-08-14T17:36:21.080Z,34.10
2022-08-14T17:39:06.265Z,34.10
2022-08-14T17:41:43.957Z,34.00
2022-08-14T17:44:33.864Z,34.00
2022-08-14T17:47:14.823Z,34.00
2022-08-14T17:49:53.645Z,34.00
2022-08-14T17:52:36.091Z,34.00
2022-08-14T17:56:02.063Z,33.90
2022-08-14T17:58:20.603Z,33.90
2022-08-14T18:00:55.511Z,33.90
2022-08-14T18:03:50.730Z,33.90
2022-08-14T18:06:39.673Z,33.80
2022-08-14T18:09:00.096Z,33.70
2022-08-14T18:11:45.943Z,33.70
2022-08-14T18:14:32.685Z,33.70
2022-08-14T18:17:02.419Z,33.60
2022-08-14T18:19:34.553Z,33.60
2022-08-14T18:22:31.211Z,33.60
2022-08-14T18:24:56.879Z,33.50
2022-08-14T18:27:36.141Z,33.40
2022-08-14T18:30:33.414Z,33.40
2022-08-14T18:32:54.673Z,33.40
2022-08-14T18:35:58.257Z,33.30
2022-08-14T18:38:25.932Z,33.30
2022-08-14T18:41:37.392Z,33.20
2022-08-14T18:44:10.802Z,33.20
2022-08-14T18:47:24.351Z,33.10
2022-08-14T18:50:03.611Z,33.10
2022-08-14T18:52:54.123Z,33.00
2022-08-14T18:55:53.433Z,32.90
2022-08-14T18:58:27.683Z,32.90
2022-08-14T19:01:02.361Z,32.80
2022-08-14T19:04:01.438Z,32.80
2022-08-14T19:06:40.095Z,32.70
2022-08-14T19:09:08.850Z,32.80
2022-08-14T19:11:50.440Z,32.70
2022-08-14T19:14:47.559Z,32.60
2022-08-14T19:18:13.953Z,32.60
2022-08-14T19:20:52.662Z,32.50
2022-08-14T19:23:23.506Z,32.40
2022-08-14T19:26:35.637Z,32.40
2022-08-14T19:29:38.180Z,32.30
2022-08-14T19:32:39.662Z,32.30
2022-08-14T19:35:55.146Z,32.20
2022-08-14T19:38:48.030Z,32.10
2022-08-14T19:41:19.201Z,32.10
2022-08-14T19:43:56.569Z,32.00
2022-08-14T19:46:38.095Z,31.90
2022-08-14T19:49:08.715Z,31.90
2022-08-14T19:51:46.051Z,31.70
2022-08-14T19:54:20.619Z,31.80
2022-08-14T19:56:48.723Z,31.70
2022-08-14T19:59:19.566Z,31.70
2022-08-14T20:01:52.155Z,31.70
2022-08-14T20:04:47.761Z,31.70
2022-08-14T20:11:08.489Z,31.70
2022-08-14T20:13:00.459Z,31.60
2022-08-14T20:15:46.763Z,31.60
2022-08-14T20:18:45.889Z,31.60
2022-08-14T20:21:05.324Z,31.50
2022-08-14T20:23:38.381Z,31.50
2022-08-14T20:26:30.629Z,31.50
2022-08-14T20:29:05.391Z,31.50
2022-08-14T20:31:38.576Z,31.40
2022-08-14T20:34:19.090Z,31.30
2022-08-14T20:37:04.221Z,31.30
2022-08-14T20:39:34.469Z,31.20
2022-08-14T20:42:30.502Z,31.20
2022-08-14T20:45:23.803Z,31.20
2022-08-14T20:48:01.064Z,31.10
2022-08-14T20:50:31.994Z,31.10
2022-08-14T20:53:05.676Z,31.00
2022-08-14T20:55:41.571Z,31.10
2022-08-14T20:58:42.217Z,31.10
2022-08-14T21:01:36.154Z,31.00
2022-08-14T21:04:22.091Z,31.00
2022-08-14T21:07:25.876Z,30.90
2022-08-14T21:10:06.368Z,30.90
2022-08-14T21:12:34.798Z,30.90
2022-08-14T21:15:10.109Z,30.80
2022-08-14T21:17:43.251Z,30.80
2022-08-14T21:20:25.317Z,30.70
2022-08-14T21:22:56.630Z,30.60
2022-08-14T21:25:28.944Z,30.60
2022-08-14T21:28:00.919Z,30.50
2022-08-14T21:30:46.816Z,30.50
2022-08-14T21:33:20.585Z,30.60
2022-08-14T21:35:54.826Z,30.50
2022-08-14T21:38:33.576Z,30.60
2022-08-14T21:41:42.982Z,30.70
2022-08-14T21:44:04.122Z,30.40
2022-08-14T21:46:36.450Z,30.30
2022-08-14T21:49:17.662Z,30.20
2022-08-14T21:51:53.724Z,30.30
2022-08-14T21:54:31.895Z,30.30
2022-08-14T21:57:02.266Z,30.30
2022-08-14T21:59:32.512Z,30.30
2022-08-14T22:02:04.576Z,30.20
2022-08-14T22:04:40.345Z,30.20
2022-08-14T22:07:12.229Z,30.20
2022-08-14T22:09:42.845Z,30.30
2022-08-14T22:12:57.385Z,30.10
2022-08-14T22:15:05.580Z,30.10
2022-08-14T22:17:34.416Z,30.00
2022-08-14T22:20:07.129Z,29.90
2022-08-14T22:22:35.371Z,29.90
2022-08-14T22:25:08.600Z,29.90
2022-08-14T22:27:55.817Z,29.90
2022-08-14T22:30:25.248Z,29.80
2022-08-14T22:32:57.090Z,29.70
2022-08-14T22:35:28.546Z,29.70
2022-08-14T22:38:36.242Z,29.70
2022-08-14T22:41:02.058Z,29.70
2022-08-14T22:43:36.142Z,29.70
2022-08-14T22:46:06.349Z,29.70
2022-08-14T22:48:45.133Z,29.70
2022-08-14T22:51:17.804Z,29.60
2022-08-14T22:53:51.616Z,29.60
2022-08-14T22:56:22.236Z,29.50
2022-08-14T22:58:58.666Z,29.60
2022-08-14T23:01:57.224Z,29.50
2022-08-14T23:04:35.120Z,29.40
2022-08-14T23:07:21.982Z,29.40
2022-08-14T23:09:56.941Z,29.40
2022-08-14T23:12:29.486Z,29.40
2022-08-14T23:14:59.286Z,29.40
2022-08-14T23:17:39.597Z,29.40
2022-08-14T23:20:19.028Z,29.30
2022-08-14T23:22:52.428Z,29.30
2022-08-14T23:25:57.558Z,29.30
2022-08-14T23:28:34.615Z,29.30
2022-08-14T23:31:02.251Z,29.20
2022-08-14T23:33:34.710Z,29.20
2022-08-14T23:36:04.597Z,29.20
2022-08-14T23:38:56.154Z,29.10
2022-08-14T23:41:24.421Z,29.10
2022-08-14T23:43:55.235Z,29.10
2022-08-14T23:46:34.676Z,29.00
2022-08-14T23:49:04.129Z,28.90
2022-08-14T23:51:38.462Z,28.90
2022-08-14T23:54:48.677Z,28.90
2022-08-14T23:57:00.206Z,28.90
2022-08-14T23:59:31.907Z,28.80
